sensor_id;sensor_type;location;lat;lon;timestamp;temperature;humidity
41756;DHT22;27435;48.480;9.258;2024-01-15T00:00:28;-1.70;99.00
41756;DHT22;27435;48.480;9.258;2024-01-15T00:02:56;-1.70;99.00
41756;DHT22;27435;48.480;9.258;2024-01-15T00:05:25;-1.70;99.00
41756;DHT22;27435;48.480;9.258;2024-01-15T00:07:53;-1.70;99.00
41756;DHT22;27435;48.480;9.258;2024-01-15T00:10:32;-1.60;99.00
41756;DHT22;27435;48.480;9.258;2024-01-15T00:13:03;-1.60;99.00
41756;DHT22;27435;48.480;9.258;2024-01-15T00:15:43;-1.60;99.00
41756;DHT22;27435;48.480;9.258;2024-01-15T00:18:09;-1.50;99.00
41756;DHT22;27435;48.480;9.258;2024-01-15T00:20:37;-1.40;99.00
41756;DHT22;27435;48.480;9.258;2024-01-15T00:23:09;-1.30;99.00
41756;DHT22;27435;48.480;9.258;2024-01-15T00:25:48;-1.30;99.00
41756;DHT22;27435;48.480;9.258;2024-01-15T00:28:20;-1.30;99.00
41756;DHT22;27435;48.480;9.258;2024-01-15T00:30:48;-1.30;99.00
41756;DHT22;27435;48.480;9.258;2024-01-15T00:33:16;-1.30;99.00
41756;DHT22;27435;48.480;9.258;2024-01-15T00:35:45;-1.20;99.00
41756;DHT22;27435;48.480;9.258;2024-01-15T00:38:13;-1.20;99.00
41756;DHT22;27435;48.480;9.258;2024-01-15T00:40:38;-1.10;99.00
41756;DHT22;27435;48.480;9.258;2024-01-15T00:43:04;-1.20;99.00
41756;DHT22;27435;48.480;9.258;2024-01-15T00:45:30;-1.10;99.00
41756;DHT22;27435;48.480;9.258;2024-01-15T00:47:55;-1.00;99.00
41756;DHT22;27435;48.480;9.258;2024-01-15T00:50:22;-1.00;99.00
41756;DHT22;27435;48.480;9.258;2024-01-15T00:52:47;-1.10;99.00
41756;DHT22;27435;48.480;9.258;2024-01-15T00:55:13;-1.00;99.00
41756;DHT22;27435;48.480;9.258;2024-01-15T00:57:39;-0.90;99.00
41756;DHT22;27435;48.480;9.258;2024-01-15T01:00:05;-1.00;99.00
41756;DHT22;27435;48.480;9.258;2024-01-15T01:02:31;-1.00;99.00
41756;DHT22;27435;48.480;9.258;2024-01-15T01:04:57;-1.00;99.00
41756;DHT22;27435;48.480;9.258;2024-01-15T01:07:23;-1.00;99.00
41756;DHT22;27435;48.480;9.258;2024-01-15T01:09:48;-1.00;99.00
41756;DHT22;27435;48.480;9.258;2024-01-15T01:12:14;-1.00;99.00
41756;DHT22;27435;48.480;9.258;2024-01-15T01:14:40;-1.00;99.00
41756;DHT22;27435;48.480;9.258;2024-01-15T01:17:06;-1.00;99.00
41756;DHT22;27435;48.480;9.258;2024-01-15T01:19:31;-1.10;99.00
41756;DHT22;27435;48.480;9.258;2024-01-15T01:21:57;-1.10;99.00
41756;DHT22;27435;48.480;9.258;2024-01-15T01:24:22;-1.10;99.00
41756;DHT22;27435;48.480;9.258;2024-01-15T01:26:48;-1.10;99.00
41756;DHT22;27435;48.480;9.258;2024-01-15T01:29:14;-1.10;99.00
41756;DHT22;27435;48.480;9.258;2024-01-15T01:31:46;-1.10;99.00
41756;DHT22;27435;48.480;9.258;2024-01-15T01:34:15;-1.00;99.00
41756;DHT22;27435;48.480;9.258;2024-01-15T01:36:44;-1.00;99.00
41756;DHT22;27435;48.480;9.258;2024-01-15T01:39:10;-1.00;99.00
41756;DHT22;27435;48.480;9.258;2024-01-15T01:41:37;-1.00;99.00
41756;DHT22;27435;48.480;9.258;2024-01-15T01:44:03;-0.90;99.00
41756;DHT22;27435;48.480;9.258;2024-01-15T01:46:29;-0.90;99.00
41756;DHT22;27435;48.480;9.258;2024-01-15T01:48:55;-1.00;99.00
41756;DHT22;27435;48.480;9.258;2024-01-15T01:51:24;-1.00;99.00
41756;DHT22;27435;48.480;9.258;2024-01-15T01:53:50;-1.00;99.00
41756;DHT22;27435;48.480;9.258;2024-01-15T01:56:17;-1.00;99.00
41756;DHT22;27435;48.480;9.258;2024-01-15T01:58:46;-1.00;99.00
41756;DHT22;27435;48.480;9.258;2024-01-15T02:01:12;-1.00;99.00
41756;DHT22;27435;48.480;9.258;2024-01-15T02:03:39;-1.00;99.00
41756;DHT22;27435;48.480;9.258;2024-01-15T02:06:08;-1.00;99.00
41756;DHT22;27435;48.480;9.258;2024-01-15T02:08:34;-1.00;99.00
41756;DHT22;27435;48.480;9.258;2024-01-15T02:11:00;-1.00;99.00
41756;DHT22;27435;48.480;9.258;2024-01-15T02:13:26;-0.90;99.00
41756;DHT22;27435;48.480;9.258;2024-01-15T02:15:51;-0.90;99.00
41756;DHT22;27435;48.480;9.258;2024-01-15T02:18:17;-0.90;99.00
41756;DHT22;27435;48.480;9.258;2024-01-15T02:20:43;-0.90;99.00
41756;DHT22;27435;48.480;9.258;2024-01-15T02:23:14;-0.90;99.00
41756;DHT22;27435;48.480;9.258;2024-01-15T02:25:44;-0.80;99.00
41756;DHT22;27435;48.480;9.258;2024-01-15T02:28:14;-0.90;99.00
41756;DHT22;27435;48.480;9.258;2024-01-15T02:30:41;-0.90;99.00
41756;DHT22;27435;48.480;9.258;2024-01-15T02:33:08;-1.00;99.00
41756;DHT22;27435;48.480;9.258;2024-01-15T02:35:34;-1.00;99.00
41756;DHT22;27435;48.480;9.258;2024-01-15T02:38:04;-0.90;99.00
41756;DHT22;27435;48.480;9.258;2024-01-15T02:40:30;-0.90;99.00
41756;DHT22;27435;48.480;9.258;2024-01-15T02:42:56;-1.00;99.00
41756;DHT22;27435;48.480;9.258;2024-01-15T02:45:22;-1.00;99.00
41756;DHT22;27435;48.480;9.258;2024-01-15T02:47:48;-0.80;99.00
41756;DHT22;27435;48.480;9.258;2024-01-15T02:50:13;-0.90;99.00
41756;DHT22;27435;48.480;9.258;2024-01-15T02:52:39;-0.90;99.00
41756;DHT22;27435;48.480;9.258;2024-01-15T02:55:05;-0.90;99.00
41756;DHT22;27435;48.480;9.258;2024-01-15T02:57:31;-1.00;99.00
41756;DHT22;27435;48.480;9.258;2024-01-15T02:59:57;-1.00;99.00
41756;DHT22;27435;48.480;9.258;2024-01-15T03:02:22;-1.00;99.00
41756;DHT22;27435;48.480;9.258;2024-01-15T03:04:48;-1.00;99.00
41756;DHT22;27435;48.480;9.258;2024-01-15T03:07:14;-1.10;99.00
41756;DHT22;27435;48.480;9.258;2024-01-15T03:09:39;-1.10;99.00
41756;DHT22;27435;48.480;9.258;2024-01-15T03:12:05;-1.20;99.00
41756;DHT22;27435;48.480;9.258;2024-01-15T03:14:31;-1.10;99.00
41756;DHT22;27435;48.480;9.258;2024-01-15T03:16:56;-1.00;99.00
41756;DHT22;27435;48.480;9.258;2024-01-15T03:19:22;-0.90;99.00
41756;DHT22;27435;48.480;9.258;2024-01-15T03:21:48;-0.90;99.00
41756;DHT22;27435;48.480;9.258;2024-01-15T03:24:14;-0.90;99.00
41756;DHT22;27435;48.480;9.258;2024-01-15T03:26:39;-0.80;99.00
41756;DHT22;27435;48.480;9.258;2024-01-15T03:29:05;-0.90;99.00
41756;DHT22;27435;48.480;9.258;2024-01-15T03:31:31;-0.90;99.00
41756;DHT22;27435;48.480;9.258;2024-01-15T03:33:57;-0.90;99.00
41756;DHT22;27435;48.480;9.258;2024-01-15T03:36:23;-0.80;99.00
41756;DHT22;27435;48.480;9.258;2024-01-15T03:38:48;-0.90;99.00
41756;DHT22;27435;48.480;9.258;2024-01-15T03:41:14;-0.80;99.00
41756;DHT22;27435;48.480;9.258;2024-01-15T03:43:39;-0.80;99.00
41756;DHT22;27435;48.480;9.258;2024-01-15T03:46:05;-0.90;99.00
41756;DHT22;27435;48.480;9.258;2024-01-15T04:38:59;-1.00;99.00
41756;DHT22;27435;48.480;9.258;2024-01-15T04:41:25;-1.00;99.00
41756;DHT22;27435;48.480;9.258;2024-01-15T04:43:50;-1.00;99.00
41756;DHT22;27435;48.480;9.258;2024-01-15T04:46:16;-1.00;99.00
41756;DHT22;27435;48.480;9.258;2024-01-15T04:48:41;-1.10;99.00
41756;DHT22;27435;48.480;9.258;2024-01-15T04:51:09;-1.10;99.00
41756;DHT22;27435;48.480;9.258;2024-01-15T04:53:35;-1.10;99.00
41756;DHT22;27435;48.480;9.258;2024-01-15T04:56:01;-1.00;99.00
41756;DHT22;27435;48.480;9.258;2024-01-15T04:58:26;-1.00;99.00
41756;DHT22;27435;48.480;9.258;2024-01-15T05:00:52;-1.00;99.00
41756;DHT22;27435;48.480;9.258;2024-01-15T05:03:19;-1.00;99.00
41756;DHT22;27435;48.480;9.258;2024-01-15T05:05:45;-1.00;99.00
41756;DHT22;27435;48.480;9.258;2024-01-15T05:08:11;-1.00;99.00
41756;DHT22;27435;48.480;9.258;2024-01-15T05:10:37;-1.00;99.00
41756;DHT22;27435;48.480;9.258;2024-01-15T05:13:02;-1.00;99.00
41756;DHT22;27435;48.480;9.258;2024-01-15T05:15:28;-1.00;99.00
41756;DHT22;27435;48.480;9.258;2024-01-15T05:17:53;-1.00;99.00
41756;DHT22;27435;48.480;9.258;2024-01-15T05:20:19;-1.00;99.00
41756;DHT22;27435;48.480;9.258;2024-01-15T05:22:45;-0.90;99.00
41756;DHT22;27435;48.480;9.258;2024-01-15T05:25:10;-0.90;99.00
41756;DHT22;27435;48.480;9.258;2024-01-15T05:27:36;-0.90;99.00
41756;DHT22;27435;48.480;9.258;2024-01-15T05:30:01;-0.90;99.00
41756;DHT22;27435;48.480;9.258;2024-01-15T05:32:27;-0.90;99.00
41756;DHT22;27435;48.480;9.258;2024-01-15T05:34:53;-1.00;99.00
41756;DHT22;27435;48.480;9.258;2024-01-15T05:37:18;-1.00;99.00
41756;DHT22;27435;48.480;9.258;2024-01-15T05:39:44;-0.90;99.00
41756;DHT22;27435;48.480;9.258;2024-01-15T05:42:09;-0.90;99.00
41756;DHT22;27435;48.480;9.258;2024-01-15T05:44:35;-0.90;99.00
41756;DHT22;27435;48.480;9.258;2024-01-15T05:47:00;-0.90;99.00
41756;DHT22;27435;48.480;9.258;2024-01-15T05:49:26;-0.90;99.00
41756;DHT22;27435;48.480;9.258;2024-01-15T05:51:52;-1.00;99.00
41756;DHT22;27435;48.480;9.258;2024-01-15T05:54:18;-0.90;99.00
41756;DHT22;27435;48.480;9.258;2024-01-15T05:56:45;-0.90;99.00
41756;DHT22;27435;48.480;9.258;2024-01-15T05:59:10;-0.80;99.00
41756;DHT22;27435;48.480;9.258;2024-01-15T06:01:36;-0.80;99.00
41756;DHT22;27435;48.480;9.258;2024-01-15T06:04:02;-0.80;99.00
41756;DHT22;27435;48.480;9.258;2024-01-15T06:06:27;-0.90;99.00
41756;DHT22;27435;48.480;9.258;2024-01-15T06:08:53;-0.90;99.00
41756;DHT22;27435;48.480;9.258;2024-01-15T06:11:19;-0.90;99.00
41756;DHT22;27435;48.480;9.258;2024-01-15T06:13:44;-0.90;99.00
41756;DHT22;27435;48.480;9.258;2024-01-15T06:16:14;-0.90;99.00
41756;DHT22;27435;48.480;9.258;2024-01-15T06:18:41;-0.90;99.00
41756;DHT22;27435;48.480;9.258;2024-01-15T06:21:07;-0.90;99.00
41756;DHT22;27435;48.480;9.258;2024-01-15T06:23:36;-0.90;99.00
41756;DHT22;27435;48.480;9.258;2024-01-15T06:26:02;-0.90;99.00
41756;DHT22;27435;48.480;9.258;2024-01-15T06:28:29;-0.90;99.00
41756;DHT22;27435;48.480;9.258;2024-01-15T06:30:54;-0.80;99.00
41756;DHT22;27435;48.480;9.258;2024-01-15T06:33:20;-0.80;99.00
41756;DHT22;27435;48.480;9.258;2024-01-15T06:35:46;-0.80;99.00
41756;DHT22;27435;48.480;9.258;2024-01-15T06:38:11;-0.80;99.00
41756;DHT22;27435;48.480;9.258;2024-01-15T06:40:37;-0.90;99.00
41756;DHT22;27435;48.480;9.258;2024-01-15T06:43:02;-0.90;99.00
41756;DHT22;27435;48.480;9.258;2024-01-15T06:45:28;-0.90;99.00
41756;DHT22;27435;48.480;9.258;2024-01-15T06:47:53;-0.80;99.00
41756;DHT22;27435;48.480;9.258;2024-01-15T06:50:19;-0.70;99.00
41756;DHT22;27435;48.480;9.258;2024-01-15T06:52:45;-0.70;99.00
41756;DHT22;27435;48.480;9.258;2024-01-15T06:55:10;-0.70;99.00
41756;DHT22;27435;48.480;9.258;2024-01-15T06:57:36;-0.70;99.00
41756;DHT22;27435;48.480;9.258;2024-01-15T07:00:02;-0.70;99.00
41756;DHT22;27435;48.480;9.258;2024-01-15T07:02:32;-0.70;99.00
41756;DHT22;27435;48.480;9.258;2024-01-15T07:04:58;-0.60;99.00
41756;DHT22;27435;48.480;9.258;2024-01-15T07:07:23;-0.70;99.00
41756;DHT22;27435;48.480;9.258;2024-01-15T07:09:49;-0.70;99.00
41756;DHT22;27435;48.480;9.258;2024-01-15T07:12:17;-0.70;99.00
41756;DHT22;27435;48.480;9.258;2024-01-15T07:14:43;-0.70;99.00
41756;DHT22;27435;48.480;9.258;2024-01-15T07:17:08;-0.60;99.00
41756;DHT22;27435;48.480;9.258;2024-01-15T07:19:34;-0.50;99.00
41756;DHT22;27435;48.480;9.258;2024-01-15T07:21:59;-0.50;99.00
41756;DHT22;27435;48.480;9.258;2024-01-15T07:24:25;-0.40;99.00
41756;DHT22;27435;48.480;9.258;2024-01-15T07:26:51;-0.50;99.00
41756;DHT22;27435;48.480;9.258;2024-01-15T07:29:16;-0.50;99.00
41756;DHT22;27435;48.480;9.258;2024-01-15T07:31:48;-0.50;99.00
41756;DHT22;27435;48.480;9.258;2024-01-15T07:34:14;-0.40;99.00
41756;DHT22;27435;48.480;9.258;2024-01-15T07:36:40;-0.40;99.00
41756;DHT22;27435;48.480;9.258;2024-01-15T07:39:05;-0.60;99.00
41756;DHT22;27435;48.480;9.258;2024-01-15T07:41:31;-0.50;99.00
41756;DHT22;27435;48.480;9.258;2024-01-15T07:43:57;-0.30;98.50
41756;DHT22;27435;48.480;9.258;2024-01-15T07:46:22;-0.30;97.10
41756;DHT22;27435;48.480;9.258;2024-01-15T07:48:48;-0.20;95.00
41756;DHT22;27435;48.480;9.258;2024-01-15T07:51:16;-0.20;93.50
41756;DHT22;27435;48.480;9.258;2024-01-15T07:53:42;-0.20;93.60
41756;DHT22;27435;48.480;9.258;2024-01-15T07:56:07;-0.10;91.50
41756;DHT22;27435;48.480;9.258;2024-01-15T07:58:36;-0.10;90.70
41756;DHT22;27435;48.480;9.258;2024-01-15T08:01:01;0.10;90.50
41756;DHT22;27435;48.480;9.258;2024-01-15T08:03:27;0.10;90.40
41756;DHT22;27435;48.480;9.258;2024-01-15T08:05:52;0.10;89.00
41756;DHT22;27435;48.480;9.258;2024-01-15T08:08:19;0.20;89.00
41756;DHT22;27435;48.480;9.258;2024-01-15T08:10:46;0.20;89.30
41756;DHT22;27435;48.480;9.258;2024-01-15T08:13:12;0.20;88.60
41756;DHT22;27435;48.480;9.258;2024-01-15T08:15:38;0.30;88.80
41756;DHT22;27435;48.480;9.258;2024-01-15T08:18:03;0.30;88.70
41756;DHT22;27435;48.480;9.258;2024-01-15T08:20:29;0.30;88.30
41756;DHT22;27435;48.480;9.258;2024-01-15T08:22:55;0.40;87.30
41756;DHT22;27435;48.480;9.258;2024-01-15T08:25:20;0.40;86.80
41756;DHT22;27435;48.480;9.258;2024-01-15T08:27:46;0.40;87.10
41756;DHT22;27435;48.480;9.258;2024-01-15T08:30:12;0.40;87.10
41756;DHT22;27435;48.480;9.258;2024-01-15T08:32:37;0.50;85.90
41756;DHT22;27435;48.480;9.258;2024-01-15T08:35:08;0.70;86.40
41756;DHT22;27435;48.480;9.258;2024-01-15T08:37:34;0.60;85.90
41756;DHT22;27435;48.480;9.258;2024-01-15T08:40:00;0.60;86.20
41756;DHT22;27435;48.480;9.258;2024-01-15T08:42:25;0.60;86.40
41756;DHT22;27435;48.480;9.258;2024-01-15T08:44:51;0.60;86.60
41756;DHT22;27435;48.480;9.258;2024-01-15T08:47:17;0.60;86.80
41756;DHT22;27435;48.480;9.258;2024-01-15T08:49:43;0.60;87.10
41756;DHT22;27435;48.480;9.258;2024-01-15T08:52:10;0.60;87.20
41756;DHT22;27435;48.480;9.258;2024-01-15T08:54:36;0.70;87.10
41756;DHT22;27435;48.480;9.258;2024-01-15T08:57:02;0.70;87.00
41756;DHT22;27435;48.480;9.258;2024-01-15T08:59:27;0.70;86.70
41756;DHT22;27435;48.480;9.258;2024-01-15T09:01:54;0.70;87.10
41756;DHT22;27435;48.480;9.258;2024-01-15T09:04:19;0.80;86.70
41756;DHT22;27435;48.480;9.258;2024-01-15T09:06:46;0.80;86.80
41756;DHT22;27435;48.480;9.258;2024-01-15T09:09:14;0.90;86.50
41756;DHT22;27435;48.480;9.258;2024-01-15T09:11:41;0.90;86.30
41756;DHT22;27435;48.480;9.258;2024-01-15T09:14:06;0.90;86.70
41756;DHT22;27435;48.480;9.258;2024-01-15T09:16:33;1.10;86.60
41756;DHT22;27435;48.480;9.258;2024-01-15T09:18:59;1.00;86.40
41756;DHT22;27435;48.480;9.258;2024-01-15T09:21:25;1.10;86.10
41756;DHT22;27435;48.480;9.258;2024-01-15T09:23:51;1.10;86.20
41756;DHT22;27435;48.480;9.258;2024-01-15T09:26:16;1.10;86.10
41756;DHT22;27435;48.480;9.258;2024-01-15T09:28:42;1.20;86.20
41756;DHT22;27435;48.480;9.258;2024-01-15T09:31:08;1.20;85.70
41756;DHT22;27435;48.480;9.258;2024-01-15T09:33:34;1.10;85.70
41756;DHT22;27435;48.480;9.258;2024-01-15T09:36:03;1.20;85.80
41756;DHT22;27435;48.480;9.258;2024-01-15T09:38:29;1.20;85.80
41756;DHT22;27435;48.480;9.258;2024-01-15T09:40:55;1.20;86.00
41756;DHT22;27435;48.480;9.258;2024-01-15T09:43:21;1.30;85.90
41756;DHT22;27435;48.480;9.258;2024-01-15T09:45:49;1.30;85.60
41756;DHT22;27435;48.480;9.258;2024-01-15T09:48:14;1.30;85.40
41756;DHT22;27435;48.480;9.258;2024-01-15T09:50:40;1.30;85.60
41756;DHT22;27435;48.480;9.258;2024-01-15T09:53:09;1.40;85.10
41756;DHT22;27435;48.480;9.258;2024-01-15T09:55:36;1.40;85.40
41756;DHT22;27435;48.480;9.258;2024-01-15T09:58:03;1.40;85.40
41756;DHT22;27435;48.480;9.258;2024-01-15T10:00:29;1.50;85.60
41756;DHT22;27435;48.480;9.258;2024-01-15T10:02:58;1.70;85.50
41756;DHT22;27435;48.480;9.258;2024-01-15T10:05:26;1.70;84.70
41756;DHT22;27435;48.480;9.258;2024-01-15T10:07:53;1.60;84.70
41756;DHT22;27435;48.480;9.258;2024-01-15T10:10:20;1.70;84.60
41756;DHT22;27435;48.480;9.258;2024-01-15T10:12:47;1.70;84.90
41756;DHT22;27435;48.480;9.258;2024-01-15T10:15:13;1.70;84.80
41756;DHT22;27435;48.480;9.258;2024-01-15T10:17:39;1.80;84.20
41756;DHT22;27435;48.480;9.258;2024-01-15T10:20:10;1.90;84.30
41756;DHT22;27435;48.480;9.258;2024-01-15T10:22:38;2.10;83.70
41756;DHT22;27435;48.480;9.258;2024-01-15T10:25:05;2.10;83.20
41756;DHT22;27435;48.480;9.258;2024-01-15T10:27:30;2.10;83.20
41756;DHT22;27435;48.480;9.258;2024-01-15T10:29:59;2.00;83.20
41756;DHT22;27435;48.480;9.258;2024-01-15T10:32:26;2.00;83.30
41756;DHT22;27435;48.480;9.258;2024-01-15T10:34:52;2.00;83.50
41756;DHT22;27435;48.480;9.258;2024-01-15T10:37:18;1.80;83.80
41756;DHT22;27435;48.480;9.258;2024-01-15T10:39:43;1.80;83.90
41756;DHT22;27435;48.480;9.258;2024-01-15T10:42:11;1.80;83.70
41756;DHT22;27435;48.480;9.258;2024-01-15T10:44:37;1.90;83.50
41756;DHT22;27435;48.480;9.258;2024-01-15T10:47:03;1.90;83.20
41756;DHT22;27435;48.480;9.258;2024-01-15T10:49:29;1.80;83.30
41756;DHT22;27435;48.480;9.258;2024-01-15T10:51:57;1.90;83.50
41756;DHT22;27435;48.480;9.258;2024-01-15T10:54:23;1.80;83.90
41756;DHT22;27435;48.480;9.258;2024-01-15T10:56:50;1.90;84.60
41756;DHT22;27435;48.480;9.258;2024-01-15T10:59:16;1.80;84.60
41756;DHT22;27435;48.480;9.258;2024-01-15T11:01:44;1.90;84.80
41756;DHT22;27435;48.480;9.258;2024-01-15T11:04:11;1.80;84.60
41756;DHT22;27435;48.480;9.258;2024-01-15T11:06:45;1.70;85.10
41756;DHT22;27435;48.480;9.258;2024-01-15T11:09:12;1.70;85.40
41756;DHT22;27435;48.480;9.258;2024-01-15T11:11:44;1.70;85.20
41756;DHT22;27435;48.480;9.258;2024-01-15T11:14:09;1.80;85.80
41756;DHT22;27435;48.480;9.258;2024-01-15T11:16:55;1.70;85.50
41756;DHT22;27435;48.480;9.258;2024-01-15T11:19:22;1.70;85.90
41756;DHT22;27435;48.480;9.258;2024-01-15T11:21:47;1.70;85.70
41756;DHT22;27435;48.480;9.258;2024-01-15T11:24:33;1.70;85.80
41756;DHT22;27435;48.480;9.258;2024-01-15T11:26:59;1.50;86.80
41756;DHT22;27435;48.480;9.258;2024-01-15T11:32:01;1.40;87.20
41756;DHT22;27435;48.480;9.258;2024-01-15T11:37:24;1.60;87.30
41756;DHT22;27435;48.480;9.258;2024-01-15T11:40:02;1.70;87.20
41756;DHT22;27435;48.480;9.258;2024-01-15T11:42:35;1.80;87.20
41756;DHT22;27435;48.480;9.258;2024-01-15T11:45:02;1.70;87.20
41756;DHT22;27435;48.480;9.258;2024-01-15T11:50:26;1.60;87.80
41756;DHT22;27435;48.480;9.258;2024-01-15T11:53:03;1.50;89.20
41756;DHT22;27435;48.480;9.258;2024-01-15T11:55:39;1.50;90.00
41756;DHT22;27435;48.480;9.258;2024-01-15T11:58:09;1.40;90.60
41756;DHT22;27435;48.480;9.258;2024-01-15T12:00:46;1.30;92.80
41756;DHT22;27435;48.480;9.258;2024-01-15T12:03:12;1.30;93.60
41756;DHT22;27435;48.480;9.258;2024-01-15T12:05:38;1.40;93.00
41756;DHT22;27435;48.480;9.258;2024-01-15T12:08:04;1.50;92.30
41756;DHT22;27435;48.480;9.258;2024-01-15T12:10:40;1.50;91.50
41756;DHT22;27435;48.480;9.258;2024-01-15T12:13:14;1.60;91.40
41756;DHT22;27435;48.480;9.258;2024-01-15T12:15:41;1.70;90.90
41756;DHT22;27435;48.480;9.258;2024-01-15T12:18:08;1.60;91.30
41756;DHT22;27435;48.480;9.258;2024-01-15T12:20:34;1.60;91.70
41756;DHT22;27435;48.480;9.258;2024-01-15T12:23:01;1.80;92.00
41756;DHT22;27435;48.480;9.258;2024-01-15T12:25:29;1.70;92.10
41756;DHT22;27435;48.480;9.258;2024-01-15T12:27:55;1.60;92.80
41756;DHT22;27435;48.480;9.258;2024-01-15T12:30:21;1.50;93.10
41756;DHT22;27435;48.480;9.258;2024-01-15T12:32:47;1.50;93.10
41756;DHT22;27435;48.480;9.258;2024-01-15T12:35:14;1.40;92.80
41756;DHT22;27435;48.480;9.258;2024-01-15T12:37:41;1.40;93.10
41756;DHT22;27435;48.480;9.258;2024-01-15T12:40:08;1.40;93.20
41756;DHT22;27435;48.480;9.258;2024-01-15T12:42:41;1.50;93.10
41756;DHT22;27435;48.480;9.258;2024-01-15T12:45:09;1.50;92.80
41756;DHT22;27435;48.480;9.258;2024-01-15T12:47:35;1.60;92.70
41756;DHT22;27435;48.480;9.258;2024-01-15T12:50:01;1.70;92.40
41756;DHT22;27435;48.480;9.258;2024-01-15T12:52:27;1.70;92.40
41756;DHT22;27435;48.480;9.258;2024-01-15T12:54:53;1.70;93.60
41756;DHT22;27435;48.480;9.258;2024-01-15T12:57:19;1.80;94.00
41756;DHT22;27435;48.480;9.258;2024-01-15T12:59:45;1.70;94.50
41756;DHT22;27435;48.480;9.258;2024-01-15T13:02:11;1.60;94.10
41756;DHT22;27435;48.480;9.258;2024-01-15T13:04:38;1.50;94.60
41756;DHT22;27435;48.480;9.258;2024-01-15T13:07:04;1.50;94.10
41756;DHT22;27435;48.480;9.258;2024-01-15T13:09:30;1.50;94.20
41756;DHT22;27435;48.480;9.258;2024-01-15T13:11:56;1.50;94.50
41756;DHT22;27435;48.480;9.258;2024-01-15T13:14:22;1.60;94.80
41756;DHT22;27435;48.480;9.258;2024-01-15T13:16:47;1.60;94.90
41756;DHT22;27435;48.480;9.258;2024-01-15T13:19:14;1.50;95.80
41756;DHT22;27435;48.480;9.258;2024-01-15T13:21:43;1.50;96.40
41756;DHT22;27435;48.480;9.258;2024-01-15T13:24:08;1.40;96.60
41756;DHT22;27435;48.480;9.258;2024-01-15T13:26:35;1.50;96.80
41756;DHT22;27435;48.480;9.258;2024-01-15T13:29:04;1.50;96.80
41756;DHT22;27435;48.480;9.258;2024-01-15T13:31:30;1.50;96.30
41756;DHT22;27435;48.480;9.258;2024-01-15T13:33:56;1.50;97.30
41756;DHT22;27435;48.480;9.258;2024-01-15T13:36:22;1.40;99.00
41756;DHT22;27435;48.480;9.258;2024-01-15T13:38:49;1.20;99.00
41756;DHT22;27435;48.480;9.258;2024-01-15T13:41:16;1.10;99.00
41756;DHT22;27435;48.480;9.258;2024-01-15T13:43:50;1.10;99.00
41756;DHT22;27435;48.480;9.258;2024-01-15T13:46:17;1.10;99.00
41756;DHT22;27435;48.480;9.258;2024-01-15T13:48:43;1.10;99.00
41756;DHT22;27435;48.480;9.258;2024-01-15T13:51:09;1.10;99.00
41756;DHT22;27435;48.480;9.258;2024-01-15T13:53:34;1.00;99.00
41756;DHT22;27435;48.480;9.258;2024-01-15T13:56:00;0.90;99.00
41756;DHT22;27435;48.480;9.258;2024-01-15T13:58:26;0.80;99.00
41756;DHT22;27435;48.480;9.258;2024-01-15T14:00:52;0.80;99.00
41756;DHT22;27435;48.480;9.258;2024-01-15T14:03:17;0.80;99.00
41756;DHT22;27435;48.480;9.258;2024-01-15T14:05:44;0.80;99.00
41756;DHT22;27435;48.480;9.258;2024-01-15T14:08:10;0.80;99.00
41756;DHT22;27435;48.480;9.258;2024-01-15T14:10:36;0.70;99.00
41756;DHT22;27435;48.480;9.258;2024-01-15T14:13:03;0.60;99.00
41756;DHT22;27435;48.480;9.258;2024-01-15T14:15:29;0.60;99.00
41756;DHT22;27435;48.480;9.258;2024-01-15T14:17:54;0.50;99.00
41756;DHT22;27435;48.480;9.258;2024-01-15T14:20:20;0.50;99.00
41756;DHT22;27435;48.480;9.258;2024-01-15T14:22:46;0.40;99.00
41756;DHT22;27435;48.480;9.258;2024-01-15T14:25:11;0.40;99.00
41756;DHT22;27435;48.480;9.258;2024-01-15T14:27:37;0.40;99.00
41756;DHT22;27435;48.480;9.258;2024-01-15T14:30:03;0.40;99.00
41756;DHT22;27435;48.480;9.258;2024-01-15T14:32:28;0.20;99.00
41756;DHT22;27435;48.480;9.258;2024-01-15T14:34:54;0.30;99.00
41756;DHT22;27435;48.480;9.258;2024-01-15T14:37:22;0.30;99.00
41756;DHT22;27435;48.480;9.258;2024-01-15T14:39:47;0.40;99.00
41756;DHT22;27435;48.480;9.258;2024-01-15T14:42:13;0.40;99.00
41756;DHT22;27435;48.480;9.258;2024-01-15T14:44:38;0.40;99.00
41756;DHT22;27435;48.480;9.258;2024-01-15T14:47:06;0.40;99.00
41756;DHT22;27435;48.480;9.258;2024-01-15T14:49:32;0.40;99.00
41756;DHT22;27435;48.480;9.258;2024-01-15T14:51:57;0.50;99.00
41756;DHT22;27435;48.480;9.258;2024-01-15T14:54:23;0.50;99.00
41756;DHT22;27435;48.480;9.258;2024-01-15T14:56:48;0.40;99.00
41756;DHT22;27435;48.480;9.258;2024-01-15T14:59:14;0.30;99.00
41756;DHT22;27435;48.480;9.258;2024-01-15T15:01:40;0.30;99.00
41756;DHT22;27435;48.480;9.258;2024-01-15T15:04:07;0.30;99.00
41756;DHT22;27435;48.480;9.258;2024-01-15T15:06:33;0.30;99.00
41756;DHT22;27435;48.480;9.258;2024-01-15T15:08:59;0.30;99.00
41756;DHT22;27435;48.480;9.258;2024-01-15T15:11:27;0.20;99.00
41756;DHT22;27435;48.480;9.258;2024-01-15T15:13:53;0.10;99.00
41756;DHT22;27435;48.480;9.258;2024-01-15T15:16:19;0.10;99.00
41756;DHT22;27435;48.480;9.258;2024-01-15T15:18:44;0.10;99.00
41756;DHT22;27435;48.480;9.258;2024-01-15T15:21:11;0.10;99.00
41756;DHT22;27435;48.480;9.258;2024-01-15T15:23:37;0.00;99.00
41756;DHT22;27435;48.480;9.258;2024-01-15T15:26:04;-0.10;99.00
41756;DHT22;27435;48.480;9.258;2024-01-15T15:28:30;0.00;99.00
41756;DHT22;27435;48.480;9.258;2024-01-15T15:30:56;0.00;99.00
41756;DHT22;27435;48.480;9.258;2024-01-15T15:33:22;-0.20;99.00
41756;DHT22;27435;48.480;9.258;2024-01-15T15:35:48;-0.10;99.00
41756;DHT22;27435;48.480;9.258;2024-01-15T15:38:17;-0.20;99.00
41756;DHT22;27435;48.480;9.258;2024-01-15T15:40:42;-0.30;99.00
41756;DHT22;27435;48.480;9.258;2024-01-15T15:43:08;-0.20;99.00
41756;DHT22;27435;48.480;9.258;2024-01-15T15:45:34;-0.10;99.00
41756;DHT22;27435;48.480;9.258;2024-01-15T15:47:59;-0.10;99.00
41756;DHT22;27435;48.480;9.258;2024-01-15T15:50:25;-0.20;99.00
41756;DHT22;27435;48.480;9.258;2024-01-15T15:52:51;-0.10;99.00
41756;DHT22;27435;48.480;9.258;2024-01-15T15:55:16;-0.10;99.00
41756;DHT22;27435;48.480;9.258;2024-01-15T15:57:42;-0.10;99.00
41756;DHT22;27435;48.480;9.258;2024-01-15T16:00:08;-0.20;99.00
41756;DHT22;27435;48.480;9.258;2024-01-15T16:02:34;-0.20;99.00
41756;DHT22;27435;48.480;9.258;2024-01-15T16:05:00;-0.10;99.00
41756;DHT22;27435;48.480;9.258;2024-01-15T16:07:26;-0.10;99.00
41756;DHT22;27435;48.480;9.258;2024-01-15T16:09:57;0.00;99.00
41756;DHT22;27435;48.480;9.258;2024-01-15T16:12:22;-0.10;99.00
41756;DHT22;27435;48.480;9.258;2024-01-15T16:14:48;-0.30;99.00
41756;DHT22;27435;48.480;9.258;2024-01-15T16:17:14;-0.30;99.00
41756;DHT22;27435;48.480;9.258;2024-01-15T16:19:39;-0.30;99.00
41756;DHT22;27435;48.480;9.258;2024-01-15T16:22:05;-0.30;99.00
41756;DHT22;27435;48.480;9.258;2024-01-15T16:24:31;-0.20;99.00
41756;DHT22;27435;48.480;9.258;2024-01-15T16:26:57;-0.20;99.00
41756;DHT22;27435;48.480;9.258;2024-01-15T16:29:24;-0.20;99.00
41756;DHT22;27435;48.480;9.258;2024-01-15T16:31:49;-0.20;99.00